createdAt,value
2019-02-06T00:00:52.532Z,12.35
2019-02-06T00:03:20.562Z,17.50
2019-02-06T00:05:47.656Z,11.12
2019-02-06T00:08:14.555Z,12.68
2019-02-06T00:10:41.445Z,9.70
2019-02-06T00:13:08.243Z,11.90
2019-02-06T00:15:35.093Z,13.43
2019-02-06T00:18:02.236Z,12.13
2019-02-06T00:20:29.693Z,10.67
2019-02-06T00:22:56.539Z,13.15
2019-02-06T00:25:23.432Z,10.90
2019-02-06T00:27:50.229Z,10.65
2019-02-06T00:30:17.936Z,13.35
2019-02-06T00:32:44.877Z,14.33
2019-02-06T00:35:12.192Z,12.75
2019-02-06T00:37:39.440Z,14.17
2019-02-06T00:40:08.357Z,11.30
2019-02-06T00:42:35.276Z,13.40
2019-02-06T00:45:03.248Z,11.83
2019-02-06T00:47:30.192Z,12.37
2019-02-06T00:49:57.035Z,12.03
2019-02-06T00:52:23.879Z,12.15
2019-02-06T00:54:51.337Z,8.05
2019-02-06T00:57:18.487Z,11.53
2019-02-06T00:59:45.323Z,9.13
2019-02-06T01:02:12.628Z,10.40
2019-02-06T01:04:39.632Z,10.53
2019-02-06T01:07:06.474Z,8.58
2019-02-06T01:09:33.628Z,10.10
2019-02-06T01:12:00.469Z,10.38
2019-02-06T01:14:27.618Z,8.15
2019-02-06T01:16:54.770Z,11.48
2019-02-06T01:19:21.615Z,13.35
2019-02-06T01:21:48.456Z,11.38
2019-02-06T01:24:15.607Z,9.80
2019-02-06T01:26:42.450Z,12.18
2019-02-06T01:29:09.293Z,10.82
2019-02-06T01:31:36.796Z,11.80
2019-02-06T01:34:04.215Z,10.45
2019-02-06T01:36:31.052Z,9.25
2019-02-06T01:38:58.816Z,10.80
2019-02-06T01:41:25.966Z,10.90
2019-02-06T01:43:52.810Z,11.55
2019-02-06T01:46:19.962Z,11.88
2019-02-06T01:48:46.804Z,10.78
2019-02-06T01:51:13.647Z,11.18
2019-02-06T01:53:41.106Z,13.85
2019-02-06T01:56:07.948Z,10.25
2019-02-06T01:58:34.792Z,33.58
2019-02-06T02:01:02.249Z,31.65
2019-02-06T02:03:29.092Z,53.23
2019-02-06T02:06:02.254Z,12.68
2019-02-06T02:08:24.622Z,11.35
2019-02-06T02:10:51.465Z,9.13
2019-02-06T02:13:18.924Z,9.18
2019-02-06T02:15:46.075Z,10.98
2019-02-06T02:18:12.917Z,16.05
2019-02-06T02:20:39.704Z,10.43
2019-02-06T02:23:06.604Z,10.63
2019-02-06T02:25:33.447Z,10.32
2019-02-06T02:28:00.290Z,9.25
2019-02-06T02:30:35.122Z,22.65
2019-02-06T02:33:02.272Z,8.48
2019-02-06T02:35:29.119Z,9.03
2019-02-06T02:37:55.960Z,8.43
2019-02-06T02:40:23.124Z,7.83
2019-02-06T02:42:49.952Z,10.30
2019-02-06T02:45:18.376Z,11.35
2019-02-06T02:47:45.791Z,8.95
2019-02-06T02:50:12.942Z,9.65
2019-02-06T02:52:40.090Z,11.68
2019-02-06T02:55:11.305Z,8.28
2019-02-06T02:57:38.385Z,10.60
2019-02-06T03:00:21.203Z,8.45
2019-02-06T03:03:07.092Z,11.47
2019-02-06T03:05:34.858Z,9.13
2019-02-06T03:08:01.709Z,11.28
2019-02-06T03:10:28.545Z,11.05
2019-02-06T03:12:55.695Z,9.43
2019-02-06T03:15:23.156Z,9.18
2019-02-06T03:17:49.996Z,7.70
2019-02-06T03:20:17.194Z,9.85
2019-02-06T03:22:43.992Z,9.20
2019-02-06T03:25:13.150Z,10.48
2019-02-06T03:27:40.133Z,8.80
2019-02-06T03:30:13.466Z,9.68
2019-02-06T03:32:40.580Z,9.60
2019-02-06T03:35:07.996Z,9.68
2019-02-06T03:37:34.885Z,7.30
2019-02-06T03:40:02.032Z,8.85
2019-02-06T03:42:29.795Z,12.18
2019-02-06T03:44:56.638Z,8.40
2019-02-06T03:47:23.481Z,9.10
2019-02-06T03:49:50.938Z,10.75
2019-02-06T03:52:17.784Z,9.48
2019-02-06T03:54:44.629Z,7.78
2019-02-06T03:57:11.512Z,9.43
2019-02-06T03:59:38.312Z,10.28
2019-02-06T04:02:05.160Z,9.08
2019-02-06T04:04:31.999Z,8.38
2019-02-06T04:07:00.976Z,10.15
2019-02-06T04:09:27.630Z,11.68
2019-02-06T04:11:54.679Z,11.83
2019-02-06T04:14:21.829Z,9.78
2019-02-06T04:16:48.775Z,13.78
2019-02-06T04:19:15.665Z,11.30
2019-02-06T04:21:42.667Z,10.08
2019-02-06T04:24:09.511Z,32.20
2019-02-06T04:26:36.663Z,8.63
2019-02-06T04:29:04.021Z,11.48
2019-02-06T04:31:30.961Z,8.73
2019-02-06T04:33:58.117Z,8.58
2019-02-06T04:36:24.957Z,7.85
2019-02-06T04:38:51.804Z,9.00
2019-02-06T04:41:18.956Z,10.30
2019-02-06T04:43:45.795Z,9.50
2019-02-06T04:46:13.250Z,9.03
2019-02-06T04:48:40.147Z,7.30
2019-02-06T04:51:06.937Z,7.35
2019-02-06T04:53:33.780Z,6.77
2019-02-06T04:56:00.931Z,10.40
2019-02-06T04:58:27.774Z,6.33
2019-02-06T05:00:54.617Z,8.23
2019-02-06T05:03:21.773Z,6.90
2019-02-06T05:05:48.919Z,7.45
2019-02-06T05:08:15.766Z,7.83
2019-02-06T05:10:42.917Z,5.80
2019-02-06T05:13:09.755Z,7.22
2019-02-06T05:15:36.598Z,7.50
2019-02-06T05:18:03.768Z,7.83
2019-02-06T05:20:34.280Z,8.93
2019-02-06T05:23:01.125Z,6.37
2019-02-06T05:25:28.597Z,8.23
2019-02-06T05:27:55.422Z,8.90
2019-02-06T05:30:22.575Z,8.23
2019-02-06T05:32:49.420Z,8.75
2019-02-06T05:35:16.566Z,7.15
2019-02-06T05:37:43.412Z,8.45
2019-02-06T05:40:11.639Z,8.55
2019-02-06T05:42:38.638Z,9.70
2019-02-06T05:45:10.640Z,89.87
2019-02-06T05:47:37.541Z,85.77
2019-02-06T05:50:11.143Z,90.17
2019-02-06T05:52:37.990Z,102.38
2019-02-06T05:55:06.006Z,58.60
2019-02-06T05:57:32.904Z,173.87
2019-02-06T06:00:00.361Z,148.45
2019-02-06T06:02:27.248Z,143.37
2019-02-06T06:04:54.050Z,108.47
2019-02-06T06:07:20.889Z,138.20
2019-02-06T06:09:48.042Z,164.97
2019-02-06T06:12:14.883Z,151.65
2019-02-06T06:14:41.729Z,131.97
2019-02-06T06:17:08.879Z,133.78
2019-02-06T06:19:35.720Z,165.57
2019-02-06T06:22:02.564Z,100.75
2019-02-06T06:24:29.714Z,118.45
2019-02-06T06:26:56.558Z,134.37
2019-02-06T06:29:23.401Z,131.95
2019-02-06T06:31:50.553Z,106.78
2019-02-06T06:34:17.702Z,141.25
2019-02-06T06:36:44.852Z,156.10
2019-02-06T06:39:12.566Z,108.50
2019-02-06T06:41:39.461Z,176.07
2019-02-06T06:44:06.305Z,90.67
2019-02-06T06:46:33.192Z,135.63
2019-02-06T06:48:59.991Z,119.50
2019-02-06T06:51:26.833Z,96.72
2019-02-06T06:53:53.724Z,157.95
2019-02-06T06:56:20.522Z,164.10
2019-02-06T06:58:47.978Z,182.88
2019-02-06T07:01:15.130Z,162.50
2019-02-06T07:03:41.972Z,149.77
2019-02-06T07:06:08.815Z,147.02
2019-02-06T07:08:35.965Z,154.93
2019-02-06T07:11:03.425Z,149.05
2019-02-06T07:13:30.266Z,142.03
2019-02-06T07:16:00.227Z,141.22
2019-02-06T07:18:25.797Z,106.93
2019-02-06T07:20:53.445Z,146.53
2019-02-06T07:23:20.404Z,144.57
2019-02-06T07:25:48.144Z,135.50
2019-02-06T07:28:15.019Z,125.92
2019-02-06T07:30:42.163Z,120.55
2019-02-06T07:33:09.620Z,103.57
2019-02-06T07:35:36.771Z,86.85
2019-02-06T07:38:03.921Z,103.65
2019-02-06T07:40:30.764Z,164.80
2019-02-06T07:42:57.621Z,189.90
2019-02-06T07:45:25.066Z,127.00
2019-02-06T07:47:51.909Z,126.75
2019-02-06T07:50:33.193Z,138.72
2019-02-06T07:53:00.038Z,105.97
2019-02-06T07:55:27.398Z,126.85
2019-02-06T07:57:54.335Z,129.00
2019-02-06T08:00:21.792Z,170.47
2019-02-06T08:02:48.636Z,137.32
2019-02-06T08:05:20.096Z,132.12
2019-02-06T08:07:47.740Z,155.93
2019-02-06T08:10:18.360Z,147.30
2019-02-06T08:12:45.225Z,148.53
2019-02-06T08:15:15.140Z,160.70
2019-02-06T08:17:41.984Z,92.70
2019-02-06T08:20:12.213Z,173.62
2019-02-06T08:22:39.364Z,158.05
2019-02-06T08:25:09.586Z,161.57
2019-02-06T08:27:36.734Z,141.68
2019-02-06T08:30:07.261Z,177.20
2019-02-06T08:32:34.103Z,177.05
2019-02-06T08:35:01.270Z,141.82
2019-02-06T08:37:28.712Z,167.93
2019-02-06T08:39:55.871Z,177.80
2019-02-06T08:42:23.319Z,157.20
2019-02-06T08:44:50.162Z,180.45
2019-02-06T08:47:17.069Z,199.23
2019-02-06T08:49:44.157Z,150.53
2019-02-06T08:52:11.000Z,167.70
2019-02-06T08:54:37.842Z,179.07
2019-02-06T08:57:04.686Z,170.72
2019-02-06T08:59:31.675Z,192.57
2019-02-06T09:01:58.988Z,180.97
2019-02-06T09:04:25.832Z,196.02
2019-02-06T09:06:52.674Z,159.57
2019-02-06T09:09:19.523Z,178.47
2019-02-06T09:11:46.672Z,186.65
2019-02-06T09:14:13.556Z,192.82
2019-02-06T09:16:40.355Z,185.70
2019-02-06T09:24:01.501Z,51.70
2019-02-06T09:26:32.982Z,3.75
2019-02-06T09:28:58.567Z,2.15
2019-02-06T09:31:25.407Z,4.58
2019-02-06T09:33:52.297Z,6.72
2019-02-06T09:36:19.404Z,3.65
2019-02-06T09:38:46.246Z,4.00
2019-02-06T09:41:13.702Z,5.35
2019-02-06T09:43:40.556Z,4.65
2019-02-06T09:46:07.391Z,5.22
2019-02-06T09:48:34.573Z,2.95
2019-02-06T09:51:01.383Z,3.27
2019-02-06T09:53:28.227Z,4.42
2019-02-06T09:55:55.684Z,2.02
2019-02-06T09:58:23.144Z,3.62
2019-02-06T10:00:49.985Z,3.65
2019-02-06T10:03:17.137Z,4.17
2019-02-06T10:05:44.287Z,2.50
2019-02-06T10:08:11.129Z,4.10
2019-02-06T10:10:38.280Z,3.80
2019-02-06T10:13:05.377Z,5.55
2019-02-06T10:15:35.038Z,3.55
2019-02-06T10:18:02.805Z,3.45
2019-02-06T10:20:33.333Z,3.12
2019-02-06T10:23:00.881Z,4.20
2019-02-06T10:25:28.616Z,2.92
2019-02-06T10:27:55.399Z,2.83
2019-02-06T10:30:25.624Z,3.75
2019-02-06T10:32:52.483Z,4.65
2019-02-06T10:35:19.620Z,3.10
2019-02-06T10:37:46.835Z,4.60
2019-02-06T10:40:13.974Z,7.17
2019-02-06T10:42:40.830Z,3.70
2019-02-06T10:45:13.754Z,4.15
2019-02-06T10:47:41.275Z,4.40
2019-02-06T10:50:14.808Z,6.33
2019-02-06T10:52:41.962Z,2.08
2019-02-06T10:55:09.985Z,2.80
2019-02-06T10:57:37.139Z,3.67
2019-02-06T11:00:19.390Z,5.42
2019-02-06T11:02:46.549Z,2.30
2019-02-06T11:05:14.240Z,5.30
2019-02-06T11:07:41.496Z,2.55
2019-02-06T11:10:14.744Z,3.47
2019-02-06T11:12:41.896Z,6.17
2019-02-06T11:15:10.508Z,2.67
2019-02-06T11:17:37.429Z,4.20
2019-02-06T11:20:07.955Z,3.85
2019-02-06T11:22:34.851Z,4.72
2019-02-06T11:25:04.596Z,4.60
2019-02-06T11:27:30.635Z,3.45
2019-02-06T11:29:58.095Z,2.75
2019-02-06T11:32:24.936Z,4.58
2019-02-06T11:34:52.086Z,5.03
2019-02-06T11:37:19.237Z,5.70
2019-02-06T11:39:57.274Z,6.03
2019-02-06T11:42:14.767Z,2.90
2019-02-06T11:44:41.917Z,5.25
2019-02-06T11:47:08.761Z,4.05
2019-02-06T11:49:37.140Z,2.15
2019-02-06T11:52:04.598Z,4.87
2019-02-06T11:54:31.441Z,3.50
2019-02-06T12:01:52.289Z,4.80
2019-02-06T12:09:12.986Z,3.40
2019-02-06T12:23:54.175Z,6.40
2019-02-06T12:31:14.705Z,9.00
2019-02-06T12:41:02.080Z,6.80
2019-02-06T12:43:29.283Z,5.15
2019-02-06T12:45:56.380Z,6.67
2019-02-06T12:48:23.136Z,3.45
2019-02-06T12:50:50.111Z,4.70
2019-02-06T12:53:16.911Z,5.72
2019-02-06T12:55:43.756Z,2.77
2019-02-06T12:58:10.904Z,4.37
2019-02-06T13:00:42.972Z,9.33
2019-02-06T13:03:10.120Z,3.72
2019-02-06T13:05:37.270Z,4.45
2019-02-06T13:08:05.236Z,5.12
2019-02-06T13:10:34.359Z,5.35
2019-02-06T13:13:00.872Z,4.00
2019-02-06T13:15:27.716Z,3.83
2019-02-06T13:17:55.175Z,6.85
2019-02-06T13:20:33.691Z,5.50
2019-02-06T13:23:00.536Z,4.72
2019-02-06T13:25:27.378Z,1.98
2019-02-06T13:27:54.264Z,2.22
2019-02-06T13:30:27.206Z,4.15
2019-02-06T13:32:54.358Z,9.33
2019-02-06T13:35:21.464Z,5.40
2019-02-06T13:37:48.527Z,5.78
2019-02-06T13:40:25.071Z,1.87
2019-02-06T13:42:52.187Z,3.70
2019-02-06T13:45:22.091Z,4.92
2019-02-06T13:47:50.777Z,3.37
2019-02-06T13:50:21.995Z,3.72
2019-02-06T13:52:48.458Z,4.50
2019-02-06T13:55:16.529Z,3.67
2019-02-06T13:57:43.372Z,6.35
2019-02-06T14:00:31.721Z,6.20
2019-02-06T14:02:58.870Z,3.22
2019-02-06T14:05:27.732Z,4.87
2019-02-06T14:07:56.864Z,4.25
2019-02-06T14:10:25.484Z,2.27
2019-02-06T14:12:52.695Z,3.50
2019-02-06T14:15:25.984Z,6.25
2019-02-06T14:17:53.140Z,3.15
2019-02-06T14:20:21.704Z,7.55
2019-02-06T14:22:52.052Z,4.42
2019-02-06T14:25:31.568Z,2.58
2019-02-06T14:28:10.927Z,8.28
2019-02-06T14:30:44.530Z,4.62
2019-02-06T14:33:21.207Z,6.03
2019-02-06T14:36:06.216Z,5.67
2019-02-06T14:39:02.198Z,4.22
2019-02-06T14:41:41.073Z,3.50
2019-02-06T14:44:14.931Z,4.70
2019-02-06T14:47:06.350Z,3.58
2019-02-06T14:49:58.102Z,5.15
2019-02-06T14:52:28.610Z,4.17
2019-02-06T14:55:22.793Z,5.90
2019-02-06T14:58:05.610Z,4.78
2019-02-06T15:01:06.552Z,3.95
2019-02-06T15:03:43.226Z,4.55
2019-02-06T15:06:19.595Z,4.28
2019-02-06T15:09:06.758Z,6.70
2019-02-06T15:11:52.601Z,4.85
2019-02-06T15:14:23.087Z,4.50
2019-02-06T15:17:05.524Z,5.97
2019-02-06T15:19:42.316Z,3.40
2019-02-06T15:22:22.062Z,6.62
2019-02-06T15:24:52.592Z,5.62
2019-02-06T15:27:46.938Z,4.85
2019-02-06T15:30:29.304Z,4.15
2019-02-06T15:33:05.653Z,4.50
2019-02-06T15:35:57.735Z,4.50
2019-02-06T15:38:45.073Z,3.15
2019-02-06T15:41:31.066Z,4.17
2019-02-06T15:43:56.924Z,5.60
2019-02-06T15:46:27.454Z,2.55
2019-02-06T15:49:09.966Z,4.53
2019-02-06T15:51:57.698Z,5.53
2019-02-06T15:54:34.373Z,3.95
2019-02-06T15:57:27.942Z,3.95
2019-02-06T16:00:10.760Z,6.15
2019-02-06T16:03:00.916Z,4.50
2019-02-06T16:05:55.749Z,7.97
2019-02-06T16:08:26.220Z,4.53
2019-02-06T16:11:11.862Z,5.05
2019-02-06T16:13:51.599Z,6.45
2019-02-06T16:16:43.028Z,6.08
2019-02-06T16:19:32.296Z,4.92
2019-02-06T16:22:39.999Z,5.42
2019-02-06T16:25:39.409Z,5.03
2019-02-06T16:28:29.904Z,5.60
2019-02-06T16:31:33.960Z,6.15
2019-02-06T16:34:23.560Z,6.05
2019-02-06T16:36:54.026Z,5.05
2019-02-06T16:39:48.214Z,5.62
2019-02-06T16:42:24.575Z,8.30
2019-02-06T16:44:58.182Z,14.30
2019-02-06T16:47:45.724Z,13.00
2019-02-06T16:50:28.420Z,3.58
2019-02-06T16:53:05.097Z,3.70
2019-02-06T16:55:44.676Z,7.12
2019-02-06T16:58:35.205Z,6.47
2019-02-06T17:01:17.543Z,4.22
2019-02-06T17:04:05.274Z,2.22
2019-02-06T17:07:06.218Z,6.60
2019-02-06T17:09:36.588Z,6.85
2019-02-06T17:12:12.807Z,12.28
2019-02-06T17:14:52.060Z,8.70
2019-02-06T17:17:25.286Z,19.60
2019-02-06T17:20:01.922Z,10.78
2019-02-06T17:22:38.540Z,20.85
2019-02-06T17:25:27.235Z,33.48
2019-02-06T17:28:13.432Z,30.90
2019-02-06T17:30:52.872Z,4.92
2019-02-06T17:33:31.919Z,5.20
2019-02-06T17:36:17.892Z,3.47
2019-02-06T17:39:04.705Z,4.83
2019-02-06T17:42:01.960Z,4.08
2019-02-06T17:44:41.400Z,5.85
2019-02-06T17:47:23.909Z,5.90
2019-02-06T17:49:57.515Z,7.42
2019-02-06T17:52:28.042Z,7.17
2019-02-06T17:55:18.539Z,7.60
2019-02-06T17:57:48.041Z,9.08
2019-02-06T18:00:28.459Z,6.37
2019-02-06T18:02:57.085Z,8.83
2019-02-06T18:05:24.040Z,4.47
2019-02-06T18:07:51.188Z,6.00
2019-02-06T18:10:19.262Z,8.68
2019-02-06T18:12:46.104Z,3.52
2019-02-06T18:15:13.869Z,6.22
2019-02-06T18:17:41.018Z,3.85
2019-02-06T18:20:11.549Z,6.47
2019-02-06T18:22:38.698Z,5.58
2019-02-06T18:25:07.856Z,5.10
2019-02-06T18:27:35.153Z,3.37
2019-02-06T18:30:04.144Z,4.42
2019-02-06T18:32:30.987Z,16.93
2019-02-06T18:34:58.376Z,17.17
2019-02-06T18:37:25.288Z,18.17
2019-02-06T18:39:52.176Z,20.08
2019-02-06T18:42:19.282Z,23.02
2019-02-06T18:44:46.432Z,19.37
2019-02-06T18:47:13.277Z,14.68
2019-02-06T18:49:40.120Z,13.65
2019-02-06T18:52:07.240Z,15.85
2019-02-06T18:54:34.119Z,19.73
2019-02-06T18:57:00.956Z,18.45
2019-02-06T18:59:28.109Z,32.55
2019-02-06T19:01:55.534Z,30.15
2019-02-06T19:04:22.715Z,26.45
2019-02-06T19:06:50.191Z,30.23
2019-02-06T19:09:17.324Z,30.57
2019-02-06T19:11:44.166Z,33.05
2019-02-06T19:14:11.628Z,42.17
2019-02-06T19:16:39.082Z,60.33
2019-02-06T19:19:06.238Z,40.23
2019-02-06T19:21:33.120Z,49.83
2019-02-06T19:24:00.226Z,15.70
2019-02-06T19:26:27.070Z,8.18
2019-02-06T19:28:54.211Z,31.70
2019-02-06T19:31:21.066Z,18.10
2019-02-06T19:33:47.906Z,32.05
2019-02-06T19:36:15.057Z,27.73
2019-02-06T19:38:42.518Z,19.40
2019-02-06T19:41:09.667Z,16.90
2019-02-06T19:43:37.123Z,29.45
2019-02-06T19:46:03.966Z,35.92
2019-02-06T19:48:30.811Z,35.43
2019-02-06T19:50:57.961Z,44.03
2019-02-06T19:53:24.851Z,47.38
2019-02-06T19:55:51.954Z,83.82
2019-02-06T19:58:19.106Z,98.45
2019-02-06T20:00:46.563Z,107.32
2019-02-06T20:03:13.407Z,102.67
2019-02-06T20:05:40.296Z,98.42
2019-02-06T20:08:07.399Z,107.12
2019-02-06T20:10:43.459Z,108.30
2019-02-06T20:13:13.936Z,91.37
2019-02-06T20:15:39.296Z,52.83
2019-02-06T20:18:06.732Z,89.25
2019-02-06T20:20:34.213Z,115.47
2019-02-06T20:23:01.056Z,113.92
2019-02-06T20:25:28.205Z,119.13
2019-02-06T20:27:55.357Z,103.55
2019-02-06T20:30:29.864Z,117.80
2019-02-06T20:32:56.723Z,111.35
2019-02-06T20:35:24.489Z,109.17
2019-02-06T20:37:51.684Z,114.90
2019-02-06T20:40:21.292Z,113.95
2019-02-06T20:42:48.090Z,113.62
2019-02-06T20:45:15.548Z,107.37
2019-02-06T20:47:42.393Z,112.22
2019-02-06T20:50:18.124Z,105.67
2019-02-06T20:52:44.987Z,105.72
2019-02-06T20:55:12.443Z,4.62
2019-02-06T20:57:41.259Z,10.88
2019-02-06T21:00:13.815Z,9.28
2019-02-06T21:02:41.004Z,7.33
2019-02-06T21:05:09.957Z,8.33
2019-02-06T21:07:37.105Z,8.50
2019-02-06T21:10:06.099Z,7.72
2019-02-06T21:12:33.556Z,8.83
2019-02-06T21:15:00.709Z,8.95
2019-02-06T21:17:27.857Z,11.00
2019-02-06T21:19:55.007Z,4.97
2019-02-06T21:22:22.158Z,3.95
2019-02-06T21:24:49.317Z,4.75
2019-02-06T21:27:16.459Z,4.17
2019-02-06T21:29:43.609Z,5.87
2019-02-06T21:32:11.080Z,6.83
2019-02-06T21:34:39.456Z,4.78
2019-02-06T21:37:06.699Z,2.98
2019-02-06T21:39:34.388Z,6.22
2019-02-06T21:42:03.049Z,4.47
2019-02-06T21:44:30.546Z,9.68
2019-02-06T21:46:57.657Z,6.78
2019-02-06T21:49:25.424Z,7.00
2019-02-06T21:51:52.879Z,4.12
2019-02-06T21:54:20.031Z,5.83
2019-02-06T21:56:47.180Z,7.45
2019-02-06T21:59:14.331Z,6.47
2019-02-06T22:01:41.481Z,5.30
2019-02-06T22:04:08.631Z,6.85
2019-02-06T22:06:35.784Z,6.65
2019-02-06T22:09:04.775Z,6.33
2019-02-06T22:11:31.926Z,4.72
2019-02-06T22:14:02.419Z,5.67
2019-02-06T22:16:29.606Z,3.42
2019-02-06T22:18:56.756Z,6.37
2019-02-06T22:21:23.907Z,3.08
2019-02-06T22:23:51.672Z,8.98
2019-02-06T22:26:18.827Z,6.08
2019-02-06T22:28:46.588Z,5.33
2019-02-06T22:31:17.472Z,5.87
2019-02-06T22:33:44.885Z,5.30
2019-02-06T22:36:12.033Z,3.42
2019-02-06T22:38:39.183Z,6.12
2019-02-06T22:41:06.954Z,8.18
2019-02-06T22:43:34.099Z,3.15
2019-02-06T22:46:01.250Z,8.85
2019-02-06T22:48:28.400Z,4.55
2019-02-06T22:50:56.595Z,7.08
2019-02-06T22:53:23.932Z,6.05
2019-02-06T22:55:51.086Z,6.47
2019-02-06T22:58:18.849Z,6.25
2019-02-06T23:00:58.333Z,3.83
2019-02-06T23:03:30.230Z,7.20
2019-02-06T23:05:57.507Z,6.90
2019-02-06T23:08:24.651Z,5.97
2019-02-06T23:10:52.109Z,5.47
2019-02-06T23:13:19.879Z,9.05
2019-02-06T23:15:47.023Z,6.47
2019-02-06T23:18:16.595Z,9.08
2019-02-06T23:20:44.118Z,5.42
2019-02-06T23:23:11.122Z,6.00
2019-02-06T23:25:38.129Z,4.40
2019-02-06T23:28:05.235Z,5.20
2019-02-06T23:30:32.384Z,5.12
2019-02-06T23:32:59.233Z,4.15
2019-02-06T23:35:26.012Z,5.28
2019-02-06T23:37:52.914Z,4.33
2019-02-06T23:40:20.373Z,3.05
2019-02-06T23:42:47.522Z,7.58
2019-02-06T23:45:19.603Z,6.20
2019-02-06T23:47:46.433Z,3.98
2019-02-06T23:50:16.045Z,6.65
2019-02-06T23:52:43.190Z,3.85
2019-02-06T23:55:10.341Z,5.67
2019-02-06T23:57:37.491Z,3.35
